Time;durP1;ratioP1;P1;durP2;ratioP2;P2;SDS_P1;SDS_P2;PMS_P1;PMS_P2;Temp;Humidity;BMP_temperature;BMP_pressure;BME280_temperature;BME280_humidity;BME280_pressure;Samples;Min_cycle;Max_cycle;Signal;HPM_P1;HPM_P2
2021/11/11 00:01:13;;;;;;;;;60.50;47.25;;;;;5.85;57.00;102010.41;4977947;28;45209;-44
2021/11/11 00:03:39;;;;;;;;;71.25;53.25;;;;;5.82;57.04;102008.59;4978012;28;46509;-44
2021/11/11 00:06:04;;;;;;;;;61.75;50.50;;;;;5.80;56.67;102010.28;4978135;28;45363;-43
2021/11/11 00:08:29;;;;;;;;;63.50;50.75;;;;;5.78;57.25;102008.47;4978357;28;46011;-45
2021/11/11 00:10:55;;;;;;;;;83.00;64.25;;;;;5.74;57.15;102006.63;4978059;28;45220;-44
2021/11/11 00:13:20;;;;;;;;;61.00;50.00;;;;;5.73;57.54;102002.25;4977896;28;45351;-44
2021/11/11 00:15:49;;;;;;;;;70.00;48.75;;;;;5.70;57.11;101997.84;4977734;28;45320;-46
2021/11/11 00:18:16;;;;;;;;;63.75;49.25;;;;;5.70;57.36;101988.28;4978175;28;45472;-43
2021/11/11 00:20:42;;;;;;;;;67.75;49.75;;;;;5.69;57.14;101986.50;4977952;28;45261;-48
2021/11/11 00:23:07;;;;;;;;;60.00;48.00;;;;;5.69;57.05;101980.41;4977791;28;45229;-48
2021/11/11 00:25:33;;;;;;;;;66.75;49.25;;;;;5.69;57.02;101977.81;4977831;28;45319;-46
2021/11/11 00:27:59;;;;;;;;;57.75;48.00;;;;;5.70;57.37;101976.97;4977988;28;45402;-46
2021/11/11 00:30:26;;;;;;;;;60.75;49.25;;;;;5.70;57.45;101977.84;4977564;28;45472;-44
2021/11/11 00:32:52;;;;;;;;;62.00;45.75;;;;;5.71;57.38;101973.53;4977780;28;45383;-47
2021/11/11 00:35:21;;;;;;;;;59.25;49.25;;;;;5.73;57.27;101973.56;4977600;28;45377;-45
2021/11/11 00:37:47;;;;;;;;;64.50;47.25;;;;;5.71;57.46;101968.31;4977891;28;45237;-45
2021/11/11 00:40:14;;;;;;;;;58.50;47.00;;;;;5.73;57.54;101970.94;4977677;28;45422;-43
2021/11/11 00:42:39;;;;;;;;;56.75;46.25;;;;;5.73;57.34;101971.81;4977628;28;46968;-43
2021/11/11 00:45:05;;;;;;;;;59.50;49.50;;;;;5.71;57.29;101973.53;4976988;28;45232;-45
2021/11/11 00:47:32;;;;;;;;;64.75;49.50;;;;;5.69;57.42;101970.84;4969461;28;45459;-45
2021/11/11 00:49:58;;;;;;;;;61.00;48.00;;;;;5.71;57.45;101981.34;4981174;28;45473;-43
2021/11/11 00:52:24;;;;;;;;;66.75;51.25;;;;;5.72;57.44;101971.78;4977479;28;46179;-45
2021/11/11 00:54:49;;;;;;;;;63.25;48.50;;;;;5.71;57.71;101963.09;4976060;28;45757;-45
2021/11/11 00:57:14;;;;;;;;;62.25;49.25;;;;;5.69;57.43;101962.16;4977507;28;45290;-48
2021/11/11 00:59:42;;;;;;;;;61.00;49.00;;;;;5.68;57.74;101965.59;4977412;28;45327;-45
2021/11/11 01:02:09;;;;;;;;;66.00;50.75;;;;;5.66;57.77;101960.34;4977137;28;45301;-47
2021/11/11 01:04:36;;;;;;;;;65.50;50.25;;;;;5.66;57.83;101956.84;4977197;28;45260;-43
2021/11/11 01:07:02;;;;;;;;;59.75;46.50;;;;;5.67;57.73;101958.63;4977421;28;45357;-44
2021/11/11 01:09:29;;;;;;;;;59.25;47.25;;;;;5.67;57.63;101953.41;4977188;28;45315;-43
2021/11/11 01:11:57;;;;;;;;;66.75;50.50;;;;;5.68;57.85;101947.34;4977038;28;45293;-47
2021/11/11 01:14:23;;;;;;;;;58.75;47.50;;;;;5.69;57.69;101957.81;4977201;28;45243;-44
2021/11/11 01:16:49;;;;;;;;;65.75;51.25;;;;;5.70;57.82;101948.28;4977032;27;45206;-43
2021/11/11 01:19:14;;;;;;;;;64.25;49.75;;;;;5.70;57.73;101948.28;4977152;28;45494;-43
2021/11/11 01:21:40;;;;;;;;;62.50;49.75;;;;;5.70;57.87;101956.97;4977007;28;46018;-45
2021/11/11 01:24:06;;;;;;;;;64.75;49.50;;;;;5.70;57.96;101953.50;4976888;28;45419;-43
2021/11/11 01:26:31;;;;;;;;;68.50;48.50;;;;;5.73;57.89;101971.81;4977112;28;45384;-43
2021/11/11 01:28:56;;;;;;;;;60.50;45.50;;;;;5.74;57.98;101957.94;4976949;28;45344;-43
2021/11/11 01:31:22;;;;;;;;;62.50;46.25;;;;;5.75;57.76;101962.31;4976619;28;45351;-47
2021/11/11 01:33:47;;;;;;;;;58.75;47.50;;;;;5.76;57.88;101951.03;4976866;28;45324;-46
2021/11/11 01:36:13;;;;;;;;;68.50;51.00;;;;;5.77;57.85;101950.16;4976939;28;45249;-44
2021/11/11 01:38:38;;;;;;;;;59.50;46.75;;;;;5.76;58.24;101948.44;4976812;28;45338;-48
2021/11/11 01:41:06;;;;;;;;;57.75;46.50;;;;;5.76;57.90;101932.78;4966511;28;48042;-44
2021/11/11 01:43:32;;;;;;;;;67.00;49.75;;;;;5.76;58.08;101932.78;4957154;28;45449;-47
2021/11/11 01:45:59;;;;;;;;;64.75;50.00;;;;;5.78;57.84;101919.78;4957154;28;45388;-45
2021/11/11 01:48:26;;;;;;;;;61.50;46.75;;;;;5.76;58.13;101922.34;4964135;28;45250;-44
2021/11/11 01:50:53;;;;;;;;;55.00;42.75;;;;;5.78;58.10;101920.63;4976529;28;47176;-43
2021/11/11 01:53:19;;;;;;;;;55.00;45.75;;;;;5.78;58.17;101920.63;4976598;28;45351;-46
2021/11/11 01:55:48;;;;;;;;;60.00;47.00;;;;;5.80;57.90;101913.75;4976754;28;45433;-43
2021/11/11 01:58:13;;;;;;;;;65.75;47.75;;;;;5.80;58.32;101916.34;4978434;28;45272;-47
2021/11/11 02:00:55;;;;;;;;;54.25;43.75;;;;;5.81;58.25;101920.72;4979354;28;45300;-46
2021/11/11 02:03:21;;;;;;;;;62.00;46.75;;;;;5.80;58.29;101912.88;4979502;28;45391;-45
2021/11/11 02:05:47;;;;;;;;;57.25;44.75;;;;;5.82;58.27;101919.00;4979709;28;45300;-45
2021/11/11 02:08:13;;;;;;;;;58.00;42.75;;;;;5.82;58.08;101919.88;4979475;28;45663;-46
2021/11/11 02:10:39;;;;;;;;;56.00;44.75;;;;;5.83;58.19;101915.53;4994700;28;45290;-47
2021/11/11 02:13:06;;;;;;;;;55.75;46.75;;;;;5.83;58.52;101915.53;4978003;28;46057;-48
2021/11/11 02:15:33;;;;;;;;;61.00;48.25;;;;;5.83;58.33;101916.41;4979510;28;45422;-47
2021/11/11 02:17:59;;;;;;;;;58.75;44.00;;;;;5.83;58.18;101920.75;4979338;28;45265;-44
2021/11/11 02:20:30;;;;;;;;;57.00;43.75;;;;;5.82;58.32;101914.69;4979517;28;45450;-46
2021/11/11 02:22:57;;;;;;;;;62.00;47.00;;;;;5.81;58.10;101915.50;4979279;28;45683;-48
2021/11/11 02:25:25;;;;;;;;;53.50;42.75;;;;;5.79;58.34;101914.59;4979501;28;45386;-46
2021/11/11 02:27:53;;;;;;;;;60.75;45.75;;;;;5.81;58.12;101907.69;4979423;28;45311;-46
2021/11/11 02:30:20;;;;;;;;;54.25;42.25;;;;;5.81;58.14;101905.06;4978958;28;45341;-46
2021/11/11 02:32:46;;;;;;;;;51.50;41.25;;;;;5.78;58.16;101897.16;4979392;28;45410;-44
2021/11/11 02:35:13;;;;;;;;;57.75;46.25;;;;;5.82;58.21;101908.56;4979401;28;45441;-47
2021/11/11 02:37:40;;;;;;;;;59.25;42.75;;;;;5.80;58.13;101916.34;4979357;28;45322;-47
2021/11/11 02:40:12;;;;;;;;;46.50;37.50;;;;;5.81;58.28;101912.00;4979055;28;45273;-47
2021/11/11 02:42:39;;;;;;;;;50.00;40.25;;;;;5.80;58.10;101910.25;4978921;28;45267;-46
2021/11/11 02:45:07;;;;;;;;;54.25;43.00;;;;;5.77;58.14;101904.94;4978896;28;45363;-45
2021/11/11 02:47:33;;;;;;;;;54.75;42.50;;;;;5.79;58.08;101913.72;4971546;28;45158;-45
2021/11/11 02:49:59;;;;;;;;;50.00;40.25;;;;;5.79;58.11;101919.78;4981065;28;46312;-46
2021/11/11 02:52:25;;;;;;;;;51.50;43.25;;;;;5.78;58.38;101917.16;4979104;28;45200;-45
2021/11/11 02:54:50;;;;;;;;;50.00;42.50;;;;;5.77;58.08;101916.25;4979118;28;45438;-48
2021/11/11 02:57:25;;;;;;;;;54.00;42.75;;;;;5.78;58.48;101920.63;4979067;28;45577;-45
2021/11/11 02:59:55;;;;;;;;;50.25;41.25;;;;;5.77;58.32;101926.69;4978744;28;45194;-46
2021/11/11 03:02:24;;;;;;;;;48.75;40.75;;;;;5.78;58.15;101925.00;4978935;28;45250;-44
2021/11/11 03:04:51;;;;;;;;;49.75;39.00;;;;;5.75;58.28;101931.00;4993989;28;45267;-46
2021/11/11 03:07:16;;;;;;;;;55.00;39.25;;;;;5.75;58.17;101932.72;4979055;28;45439;-49
2021/11/11 03:09:43;;;;;;;;;56.50;47.00;;;;;5.74;58.15;101939.69;4976366;28;46173;-44
2021/11/11 03:12:09;;;;;;;;;54.50;42.00;;;;;5.70;58.14;101933.50;4978780;28;45334;-46
2021/11/11 03:14:35;;;;;;;;;54.25;42.50;;;;;5.73;58.34;101937.03;4978839;28;45343;-43
2021/11/11 03:17:01;;;;;;;;;54.25;43.25;;;;;5.73;58.33;101940.50;4978706;28;45413;-44
2021/11/11 03:19:26;;;;;;;;;56.00;42.00;;;;;5.72;58.33;101938.75;4978490;28;46231;-48
2021/11/11 03:21:52;;;;;;;;;58.00;42.75;;;;;5.70;58.41;101930.03;4978854;28;45232;-45
2021/11/11 03:24:17;;;;;;;;;58.75;44.00;;;;;5.68;58.44;101927.34;4978751;28;45170;-44
2021/11/11 03:26:43;;;;;;;;;58.25;45.25;;;;;5.67;58.24;101928.22;4978653;28;45151;-44
2021/11/11 03:29:08;;;;;;;;;52.00;43.75;;;;;5.66;58.49;101928.16;4978426;28;46100;-43
2021/11/11 03:31:34;;;;;;;;;41.25;35.50;;;;;5.66;58.42;101931.66;4978419;28;45225;-46
2021/11/11 03:34:00;;;;;;;;;58.50;45.25;;;;;5.65;58.20;101936.84;4960649;28;45234;-48
2021/11/11 03:36:25;;;;;;;;;54.50;44.50;;;;;5.63;58.52;101933.31;4969224;28;45549;-44
2021/11/11 03:38:51;;;;;;;;;55.50;42.75;;;;;5.61;58.55;101925.44;4978421;28;46817;-48
2021/11/11 03:41:16;;;;;;;;;57.50;44.25;;;;;5.58;58.50;101924.50;4977209;28;45312;-46
2021/11/11 03:43:42;;;;;;;;;40.25;34.50;;;;;5.57;58.37;101930.53;4978273;28;45444;-48
2021/11/11 03:46:11;;;;;;;;;49.75;42.50;;;;;5.55;58.43;101940.94;4978332;28;45281;-48
2021/11/11 03:48:36;;;;;;;;;55.00;41.50;;;;;5.51;58.30;101937.38;4972219;28;46082;-44
2021/11/11 03:51:01;;;;;;;;;52.75;42.50;;;;;5.51;58.40;101936.50;4977378;28;45236;-46
2021/11/11 03:53:27;;;;;;;;;51.00;39.00;;;;;5.51;58.26;101937.38;4978404;28;45432;-44
2021/11/11 03:55:52;;;;;;;;;60.50;44.25;;;;;5.46;58.26;101927.66;4978442;28;45233;-44
2021/11/11 03:58:17;;;;;;;;;50.25;39.75;;;;;5.44;58.51;101927.63;4978085;28;45340;-44
2021/11/11 04:00:45;;;;;;;;;56.75;43.00;;;;;5.44;58.28;101943.25;4977941;28;45267;-47
2021/11/11 04:03:10;;;;;;;;;49.50;42.25;;;;;5.44;58.38;101948.47;4976824;28;45367;-47
2021/11/11 04:05:36;;;;;;;;;51.25;39.75;;;;;5.43;58.35;101946.69;4978383;28;45186;-46
2021/11/11 04:08:02;;;;;;;;;55.00;44.50;;;;;5.42;58.30;101939.75;4977807;28;46100;-47
2021/11/11 04:10:27;;;;;;;;;55.25;42.00;;;;;5.41;58.57;101937.97;4978178;28;45335;-48
2021/11/11 04:12:53;;;;;;;;;58.00;44.75;;;;;5.40;58.21;101928.38;4978131;28;45289;-45
2021/11/11 04:15:18;;;;;;;;;44.50;38.75;;;;;5.37;58.43;101930.91;4977863;28;45319;-47
2021/11/11 04:17:44;;;;;;;;;51.00;40.25;;;;;5.36;58.27;101937.84;4977773;28;46233;-46
2021/11/11 04:20:10;;;;;;;;;52.75;42.00;;;;;5.34;58.42;101949.06;4977626;28;45422;-47
2021/11/11 04:22:37;;;;;;;;;51.00;42.00;;;;;5.30;58.35;101949.84;4977860;28;45309;-45
2021/11/11 04:25:06;;;;;;;;;51.50;42.75;;;;;5.29;58.33;101950.69;4977944;28;45522;-46
2021/11/11 04:27:34;;;;;;;;;58.00;43.50;;;;;5.25;58.74;101946.25;4977516;28;47336;-44
2021/11/11 04:30:13;;;;;;;;;46.75;39.25;;;;;5.24;58.68;101949.69;4977658;28;45282;-43
2021/11/11 04:32:39;;;;;;;;;55.00;43.25;;;;;5.17;58.51;101951.22;4977906;28;45288;-43
2021/11/11 04:35:06;;;;;;;;;56.25;43.50;;;;;5.16;58.48;101952.94;4977850;28;45450;-44
2021/11/11 04:37:40;;;;;;;;;61.00;44.75;;;;;5.14;58.75;101953.75;4977687;28;46907;-46
2021/11/11 04:45:54;;;;;;;;;60.75;49.75;;;;;5.07;58.54;101947.50;4985269;28;45438;-44
2021/11/11 05:02:06;;;;;;;;;56.00;44.50;;;;;5.12;58.90;101971.06;4957682;28;45238;-46
2021/11/11 05:04:32;;;;;;;;;56.50;45.75;;;;;5.12;58.78;101971.94;4957884;28;45359;-44
2021/11/11 05:06:57;;;;;;;;;53.50;41.50;;;;;5.14;58.76;101969.38;4957825;28;45519;-46
2021/11/11 05:09:23;;;;;;;;;49.00;40.75;;;;;5.15;58.74;101963.34;4957681;28;45300;-45
2021/11/11 05:11:49;;;;;;;;;57.75;44.25;;;;;5.14;58.55;101958.97;4957969;28;45294;-45
2021/11/11 05:14:15;;;;;;;;;53.50;41.75;;;;;5.16;58.66;101958.16;4957769;28;45260;-46
2021/11/11 05:16:40;;;;;;;;;51.25;40.75;;;;;5.16;58.83;101963.38;4969698;28;45550;-47
2021/11/11 05:19:06;;;;;;;;;57.50;42.50;;;;;5.19;58.98;101967.78;4962816;28;47251;-43
2021/11/11 05:21:31;;;;;;;;;57.50;45.00;;;;;5.19;59.00;101973.91;4977148;28;45186;-43
2021/11/11 05:23:57;;;;;;;;;55.50;43.50;;;;;5.19;58.70;101971.28;4977045;28;45617;-48
2021/11/11 05:26:22;;;;;;;;;52.50;43.00;;;;;5.19;58.94;101966.09;4977140;28;45601;-45
2021/11/11 05:28:47;;;;;;;;;51.50;44.25;;;;;5.21;58.92;101969.59;4976849;28;46214;-44
2021/11/11 05:31:13;;;;;;;;;59.25;43.00;;;;;5.21;58.70;101993.06;4976848;28;45295;-43
2021/11/11 05:33:39;;;;;;;;;48.25;40.50;;;;;5.21;58.68;101993.06;4979504;28;45281;-43
2021/11/11 05:36:04;;;;;;;;;54.25;41.75;;;;;5.23;58.90;101987.88;4978802;28;46075;-43
2021/11/11 05:38:29;;;;;;;;;53.75;44.25;;;;;5.21;58.94;101993.06;4980046;28;45396;-43
2021/11/11 05:40:55;;;;;;;;;55.75;43.50;;;;;5.24;59.14;102007.03;4980003;28;45248;-43
2021/11/11 05:43:20;;;;;;;;;59.00;43.75;;;;;5.22;58.80;102006.97;4979786;28;45199;-44
2021/11/11 05:45:46;;;;;;;;;57.00;42.25;;;;;5.21;59.12;102019.13;4979792;28;45268;-44
2021/11/11 05:48:11;;;;;;;;;51.75;43.00;;;;;5.20;58.97;102016.47;4972334;28;46133;-45
2021/11/11 05:50:37;;;;;;;;;52.00;41.00;;;;;5.19;58.72;102012.09;4979951;28;45340;-46
2021/11/11 05:53:03;;;;;;;;;59.00;42.50;;;;;5.18;58.98;102016.44;4979810;28;45268;-45
2021/11/11 05:55:29;;;;;;;;;56.50;39.75;;;;;5.12;59.18;102015.34;4979859;28;45441;-46
2021/11/11 05:57:54;;;;;;;;;49.25;40.00;;;;;5.13;59.21;102031.06;4979373;28;46150;-45
2021/11/11 06:00:21;;;;;;;;;54.50;44.00;;;;;5.11;59.21;102031.84;4979674;28;45306;-46
2021/11/11 06:02:47;;;;;;;;;41.00;36.75;;;;;5.10;59.17;102035.28;4979749;28;45231;-45
2021/11/11 06:05:13;;;;;;;;;58.25;40.50;;;;;5.05;59.10;102041.22;4979696;28;45722;-44
2021/11/11 06:07:39;;;;;;;;;48.25;40.25;;;;;5.05;59.16;102046.44;4979397;28;46238;-46
2021/11/11 06:10:06;;;;;;;;;45.50;39.25;;;;;5.02;58.96;102051.56;4979626;28;45244;-44
2021/11/11 06:12:31;;;;;;;;;54.25;42.25;;;;;5.02;59.07;102048.09;4979452;28;45346;-43
2021/11/11 06:14:57;;;;;;;;;50.50;40.00;;;;;5.00;58.98;102054.97;4977878;27;45273;-43
2021/11/11 06:17:24;;;;;;;;;43.50;37.50;;;;;4.98;59.16;102051.44;4979313;28;46940;-43
2021/11/11 06:19:51;;;;;;;;;42.50;35.25;;;;;4.94;58.89;102060.00;4979477;28;45401;-44
2021/11/11 06:22:17;;;;;;;;;45.50;38.25;;;;;4.95;59.21;102067.84;4979508;28;45255;-44
2021/11/11 06:24:44;;;;;;;;;50.25;38.75;;;;;4.93;59.21;102069.56;4978030;28;45339;-44
2021/11/11 06:27:10;;;;;;;;;47.50;39.00;;;;;4.92;59.12;102080.81;4979145;28;45320;-43
2021/11/11 06:29:35;;;;;;;;;45.75;37.75;;;;;4.87;59.02;102072.84;4969781;28;45279;-43
2021/11/11 06:32:01;;;;;;;;;43.00;37.75;;;;;4.89;58.89;102083.31;4959678;28;45170;-47
2021/11/11 06:34:26;;;;;;;;;47.25;38.25;;;;;4.88;58.89;102091.97;4959889;28;45343;-46
2021/11/11 06:36:52;;;;;;;;;48.00;39.25;;;;;4.85;58.74;102097.06;4959534;28;45956;-46
2021/11/11 06:39:17;;;;;;;;;37.00;34.75;;;;;4.83;58.99;102094.44;4959775;28;45320;-44
2021/11/11 06:41:43;;;;;;;;;48.00;39.50;;;;;4.82;58.74;102103.06;4959918;28;45244;-43
2021/11/11 06:44:09;;;;;;;;;42.25;35.00;;;;;4.76;58.94;102102.88;4959458;28;45731;-45
2021/11/11 06:46:36;;;;;;;;;55.00;41.00;;;;;4.78;58.69;102108.13;4959267;28;46124;-43
2021/11/11 06:49:02;;;;;;;;;48.00;39.25;;;;;4.77;58.65;102119.38;4968964;28;45279;-45
2021/11/11 06:51:28;;;;;;;;;41.75;38.75;;;;;4.73;59.07;102123.63;4979303;28;45259;-43
2021/11/11 06:53:53;;;;;;;;;49.00;37.00;;;;;4.74;58.90;102127.09;4979125;28;45636;-45
2021/11/11 06:56:19;;;;;;;;;48.50;39.25;;;;;4.72;58.88;102129.66;4978987;28;46200;-44
2021/11/11 06:58:44;;;;;;;;;40.75;37.00;;;;;4.71;58.80;102130.50;4970653;28;45384;-47
2021/11/11 07:01:09;;;;;;;;;41.75;36.25;;;;;4.69;58.78;102120.03;4959402;28;45199;-44
2021/11/11 07:03:35;;;;;;;;;37.00;31.75;;;;;4.64;58.92;102115.50;4959671;28;45210;-45
2021/11/11 07:06:01;;;;;;;;;49.25;40.75;;;;;4.65;58.96;102122.50;4959302;28;47199;-44
2021/11/11 07:08:26;;;;;;;;;40.75;37.50;;;;;4.65;58.63;102133.78;4959442;28;45456;-46
2021/11/11 07:10:54;;;;;;;;;47.00;37.25;;;;;4.65;59.12;102127.69;4959659;28;45714;-43
2021/11/11 07:13:21;;;;;;;;;48.25;40.25;;;;;4.63;58.68;102124.16;4959278;28;45424;-46
2021/11/11 07:15:47;;;;;;;;;48.00;37.50;;;;;4.63;58.59;102127.66;4958965;28;47077;-46
2021/11/11 07:18:13;;;;;;;;;48.75;39.75;;;;;4.61;58.79;102137.13;4959379;28;45431;-45
2021/11/11 07:20:44;;;;;;;;;51.00;40.75;;;;;4.60;58.74;102132.75;4959398;28;45225;-43
2021/11/11 07:23:10;;;;;;;;;47.25;40.00;;;;;4.59;58.64;102140.50;4959298;28;45257;-45
2021/11/11 07:25:36;;;;;;;;;47.25;37.50;;;;;4.59;58.77;102143.13;4959031;28;45458;-47
2021/11/11 07:28:02;;;;;;;;;50.25;40.50;;;;;4.57;59.06;102137.88;4959060;28;45263;-45
2021/11/11 07:30:27;;;;;;;;;38.25;36.00;;;;;4.54;58.90;102130.84;4959065;28;45463;-43
2021/11/11 07:32:53;;;;;;;;;56.50;44.50;;;;;4.55;58.70;102130.00;4959171;28;45430;-44
2021/11/11 07:35:18;;;;;;;;;55.00;44.25;;;;;4.56;58.90;102136.97;4959002;28;45244;-44
2021/11/11 07:37:47;;;;;;;;;44.50;39.25;;;;;4.56;58.73;102136.97;4959243;28;45183;-43
2021/11/11 07:40:16;;;;;;;;;42.75;39.25;;;;;4.56;58.77;102130.88;4959121;28;45335;-43
2021/11/11 07:42:43;;;;;;;;;56.75;43.50;;;;;4.56;58.68;102126.56;4958828;28;45186;-46
2021/11/11 07:45:11;;;;;;;;;46.00;38.50;;;;;4.56;58.49;102131.75;4958440;28;45415;-46
2021/11/11 07:47:37;;;;;;;;;51.25;40.25;;;;;4.52;58.81;102118.59;4958932;28;45161;-45
2021/11/11 07:50:06;;;;;;;;;56.75;45.00;;;;;4.57;58.69;102117.03;4980887;28;45365;-46
2021/11/11 07:52:31;;;;;;;;;58.00;43.00;;;;;4.56;59.02;102115.25;4978317;28;45398;-47
2021/11/11 07:54:58;;;;;;;;;54.50;43.00;;;;;4.57;58.86;102114.44;4977328;28;45445;-50
2021/11/11 07:57:26;;;;;;;;;49.25;41.25;;;;;4.56;58.96;102121.34;4978327;28;45315;-45
2021/11/11 07:59:53;;;;;;;;;51.75;43.00;;;;;4.58;58.67;102107.50;4977869;28;45335;-44
2021/11/11 08:02:20;;;;;;;;;56.25;43.50;;;;;4.55;59.09;102106.59;4978162;28;45504;-46
2021/11/11 08:04:45;;;;;;;;;49.00;40.75;;;;;4.60;59.03;102108.44;4977785;28;46879;-45
2021/11/11 08:07:12;;;;;;;;;53.25;42.50;;;;;4.59;59.05;102101.47;4967047;28;45285;-47
2021/11/11 08:09:37;;;;;;;;;54.75;42.75;;;;;4.63;59.01;102105.91;4958556;28;45253;-43
2021/11/11 08:12:03;;;;;;;;;58.75;45.00;;;;;4.65;58.77;102112.94;4958568;28;45256;-46
2021/11/11 08:14:29;;;;;;;;;45.00;38.75;;;;;4.68;58.81;102120.88;4958270;28;45246;-45
2021/11/11 08:16:55;;;;;;;;;56.25;45.00;;;;;4.70;58.81;102118.31;4963475;28;45546;-44
2021/11/11 08:19:21;;;;;;;;;57.00;44.50;;;;;4.70;59.06;102113.09;4974506;28;45190;-47
2021/11/11 08:21:47;;;;;;;;;57.50;42.75;;;;;4.71;58.96;102104.47;4977815;28;45351;-48
2021/11/11 08:24:12;;;;;;;;;59.00;44.00;;;;;4.75;59.01;102105.44;4977647;28;45398;-45
2021/11/11 08:26:38;;;;;;;;;57.00;46.25;;;;;4.77;59.08;102102.06;4977885;28;45339;-48
2021/11/11 08:29:03;;;;;;;;;58.75;44.00;;;;;4.81;59.02;102110.84;4977741;28;45513;-44
2021/11/11 08:31:29;;;;;;;;;60.50;47.00;;;;;4.83;58.88;102107.47;4976285;28;45328;-45
2021/11/11 08:33:55;;;;;;;;;59.50;46.25;;;;;4.85;58.90;102108.38;4977427;28;46239;-47
2021/11/11 08:36:22;;;;;;;;;64.50;47.50;;;;;4.87;58.96;102091.06;4976465;28;45322;-47
2021/11/11 08:38:48;;;;;;;;;156.50;136.75;;;;;4.91;58.80;102080.78;4977629;28;45517;-45
2021/11/11 08:41:13;;;;;;;;;208.50;175.00;;;;;4.94;59.05;102076.50;4977659;28;45399;-45
2021/11/11 08:43:38;;;;;;;;;47.00;40.00;;;;;4.98;59.04;102085.31;4977266;28;45314;-44
2021/11/11 08:46:04;;;;;;;;;63.00;50.50;;;;;5.01;59.24;102081.06;4977312;28;45251;-46
2021/11/11 08:48:30;;;;;;;;;63.25;48.50;;;;;5.06;59.22;102076.00;4971583;28;45177;-49
2021/11/11 08:50:56;;;;;;;;;69.50;53.25;;;;;5.11;59.27;102079.63;4977615;28;45154;-46
2021/11/11 08:53:22;;;;;;;;;59.25;47.75;;;;;5.15;59.45;102071.06;4977326;28;46050;-46
2021/11/11 08:55:48;;;;;;;;;62.25;50.00;;;;;5.20;59.11;102073.81;4977459;28;45342;-48
2021/11/11 08:58:15;;;;;;;;;62.00;48.50;;;;;5.25;59.09;102076.56;4975943;28;45336;-47
2021/11/11 09:00:44;;;;;;;;;61.25;46.25;;;;;5.28;59.33;102081.84;4975888;28;45549;-46
2021/11/11 09:03:12;;;;;;;;;66.50;49.25;;;;;5.32;59.10;102075.88;4976958;28;46027;-45
2021/11/11 09:05:38;;;;;;;;;66.75;51.25;;;;;5.36;59.53;102073.41;4977159;28;45418;-46
2021/11/11 09:08:06;;;;;;;;;62.00;49.00;;;;;5.40;59.60;102077.00;4978917;28;45359;-47
2021/11/11 09:10:32;;;;;;;;;69.75;57.00;;;;;5.44;59.17;102073.63;4980135;28;45343;-45
2021/11/11 09:12:58;;;;;;;;;79.25;60.75;;;;;5.47;59.49;102073.72;4960742;28;46126;-45
2021/11/11 09:15:27;;;;;;;;;74.50;56.75;;;;;5.53;59.43;102073.00;4960606;28;45350;-45
2021/11/11 09:17:57;;;;;;;;;71.50;55.25;;;;;5.56;59.35;102067.88;4960541;28;45273;-44
2021/11/11 09:20:23;;;;;;;;;73.25;54.25;;;;;5.60;59.57;102074.06;4960513;28;45387;-48
2021/11/11 09:22:51;;;;;;;;;67.50;54.75;;;;;5.62;59.50;102069.75;4960230;28;46210;-48
2021/11/11 09:25:16;;;;;;;;;70.50;56.00;;;;;5.65;59.64;102070.72;4960405;28;45191;-48
2021/11/11 09:27:44;;;;;;;;;73.50;54.50;;;;;5.69;59.51;102075.19;4960512;28;45447;-46
2021/11/11 09:30:14;;;;;;;;;69.50;54.50;;;;;5.73;59.38;102076.16;4960371;28;45362;-45
2021/11/11 09:32:40;;;;;;;;;66.25;49.00;;;;;5.77;59.55;102067.56;4958971;28;47238;-46
2021/11/11 09:35:08;;;;;;;;;710.50;593.50;;;;;5.78;59.59;102066.72;4958777;28;45397;-48
2021/11/11 09:37:35;;;;;;;;;552.00;481.40;;;;;5.86;59.51;102065.22;4960463;28;45327;-47
2021/11/11 09:40:01;;;;;;;;;91.67;74.00;;;;;5.91;59.60;102054.91;4960297;28;45319;-45
2021/11/11 09:42:27;;;;;;;;;73.00;55.00;;;;;5.96;59.37;102057.63;4960230;28;45257;-46
2021/11/11 09:44:53;;;;;;;;;128.50;115.25;;;;;5.99;59.99;102053.41;4960036;28;45385;-47
2021/11/11 09:47:19;;;;;;;;;86.75;70.00;;;;;6.08;59.72;102052.75;4959150;28;45382;-46
2021/11/11 09:49:47;;;;;;;;;75.25;59.00;;;;;6.14;59.49;102055.53;4976058;28;45457;-48
2021/11/11 09:52:13;;;;;;;;;178.00;160.50;;;;;6.20;59.60;102056.50;4979818;28;46179;-46
2021/11/11 10:00:09;;;;;;;;;158.00;133.75;;;;;6.44;59.60;102048.38;4979263;28;45290;-46
2021/11/11 10:02:34;;;;;;;;;88.67;76.67;;;;;6.53;59.88;102038.19;4978525;28;46364;-46
2021/11/11 10:05:00;;;;;;;;;76.75;59.25;;;;;6.61;60.03;102043.56;4978306;28;45302;-47
2021/11/11 10:07:25;;;;;;;;;76.50;57.00;;;;;6.69;59.83;102036.78;4978657;28;45346;-49
2021/11/11 10:09:50;;;;;;;;;89.33;69.67;;;;;6.77;60.04;102037.84;4978465;28;45355;-46
2021/11/11 10:12:21;;;;;;;;;82.50;61.25;;;;;6.86;60.36;102033.69;4978334;28;45294;-45
2021/11/11 10:14:48;;;;;;;;;91.33;76.67;;;;;6.94;59.95;102032.09;4978030;28;45412;-46
2021/11/11 10:17:17;;;;;;;;;78.75;59.50;;;;;7.02;59.92;102034.88;4978565;28;45357;-46
2021/11/11 10:19:45;;;;;;;;;77.00;59.00;;;;;7.06;59.93;102029.75;4978152;28;45243;-47
2021/11/11 10:22:24;;;;;;;;;86.67;66.67;;;;;7.18;60.01;102036.94;4978083;28;46973;-48
2021/11/11 10:25:00;;;;;;;;;76.25;56.75;;;;;7.27;59.95;102025.78;4978248;28;45509;-46
2021/11/11 10:27:37;;;;;;;;;76.50;60.25;;;;;7.35;59.94;102032.06;4976936;28;45348;-45
2021/11/11 10:30:25;;;;;;;;;77.50;59.25;;;;;7.42;60.02;102026.13;4978211;28;45224;-46
2021/11/11 10:33:09;;;;;;;;;78.75;59.00;;;;;7.44;59.89;102021.78;4978126;28;45189;-44
2021/11/11 10:35:38;;;;;;;;;80.75;61.75;;;;;7.58;60.00;102042.09;4978160;28;45255;-47
2021/11/11 10:38:15;;;;;;;;;82.25;62.75;;;;;7.69;60.09;102051.03;4978254;28;45350;-44
2021/11/11 10:40:52;;;;;;;;;79.00;60.00;;;;;7.77;60.08;102061.63;4977849;28;45553;-47
2021/11/11 10:43:24;;;;;;;;;85.50;64.00;;;;;7.84;59.89;102074.00;4976386;27;46515;-45
2021/11/11 10:45:52;;;;;;;;;79.50;66.00;;;;;7.90;59.97;102084.56;4977762;28;45327;-48
2021/11/11 10:48:23;;;;;;;;;87.33;69.67;;;;;7.94;60.03;102081.16;4967661;28;45365;-46
2021/11/11 10:50:51;;;;;;;;;83.75;67.50;;;;;8.01;59.97;102070.78;4978098;28;45344;-47
2021/11/11 10:53:24;;;;;;;;;83.00;64.67;;;;;8.07;59.73;102069.16;4977651;28;46674;-44
2021/11/11 10:55:51;;;;;;;;;78.25;60.00;;;;;8.12;60.16;102046.53;4977847;28;45362;-46
2021/11/11 10:58:20;;;;;;;;;86.00;72.00;;;;;8.20;59.92;102040.56;4977642;27;45466;-47
2021/11/11 11:01:00;;;;;;;;;83.33;67.67;;;;;8.27;60.02;102038.06;4924079;28;1555660;-46
2021/11/11 11:03:27;;;;;;;;;84.33;68.00;;;;;8.34;60.05;102041.69;4978708;28;45411;-43
2021/11/11 11:06:01;;;;;;;;;85.33;71.67;;;;;8.39;59.95;102024.28;4978868;28;45331;-45
2021/11/11 11:08:28;;;;;;;;;78.33;61.00;;;;;8.52;60.00;102029.75;4978981;28;45305;-44
2021/11/11 11:11:01;;;;;;;;;85.00;65.33;;;;;8.59;59.93;102008.00;4978716;28;45483;-44
2021/11/11 11:13:31;;;;;;;;;84.33;64.33;;;;;8.71;59.88;102004.69;4978542;28;46221;-44
2021/11/11 11:16:02;;;;;;;;;89.67;72.00;;;;;8.85;59.92;102002.25;4978552;28;45173;-45
2021/11/11 11:18:34;;;;;;;;;87.67;75.67;;;;;8.95;59.91;101985.78;4978908;28;45154;-45
2021/11/11 11:21:04;;;;;;;;;90.33;75.33;;;;;9.08;60.07;101995.56;4978614;28;45429;-44
2021/11/11 11:23:37;;;;;;;;;89.00;76.00;;;;;9.22;59.96;102000.06;4978655;28;46005;-48
2021/11/11 11:26:12;;;;;;;;;88.00;74.67;;;;;9.36;59.99;101997.63;4978374;28;45171;-47
2021/11/11 11:28:49;;;;;;;;;89.00;77.67;;;;;9.50;59.79;102001.28;4978583;28;45283;-47
2021/11/11 11:31:30;;;;;;;;;86.67;75.33;;;;;9.68;59.99;102008.44;4977418;28;45321;-46
2021/11/11 11:33:56;;;;;;;;;86.33;72.00;;;;;9.83;60.00;102005.06;4978361;28;45424;-45
2021/11/11 11:36:37;;;;;;;;;90.33;80.67;;;;;10.00;59.93;102004.34;4978674;28;45208;-48
2021/11/11 11:39:06;;;;;;;;;86.67;78.33;;;;;10.16;59.81;102016.75;4978838;28;45351;-44
2021/11/11 11:41:44;;;;;;;;;86.00;73.33;;;;;10.34;59.68;102013.38;4977303;28;45323;-46